createdAt,value
2017-06-18T00:00:11.209Z,1018.7
2017-06-18T00:01:23.743Z,1018.66
2017-06-18T00:02:36.256Z,1018.67
2017-06-18T00:03:48.474Z,1018.64
2017-06-18T00:05:00.716Z,1018.64
2017-06-18T00:06:13.264Z,1018.67
2017-06-18T00:07:25.187Z,1018.65
2017-06-18T00:08:37.705Z,1018.63
2017-06-18T00:09:49.625Z,1018.63
2017-06-18T00:11:02.176Z,1018.61
2017-06-18T00:12:14.718Z,1018.65
2017-06-18T00:13:26.961Z,1018.61
2017-06-18T00:14:39.185Z,1018.65
2017-06-18T00:15:51.729Z,1018.66
2017-06-18T00:17:04.279Z,1018.62
2017-06-18T00:18:16.494Z,1018.62
2017-06-18T00:19:29.018Z,1018.63
2017-06-18T00:20:41.541Z,1018.62
2017-06-18T00:21:53.767Z,1018.55
2017-06-18T00:23:06.002Z,1018.58
2017-06-18T00:24:18.251Z,1018.6
2017-06-18T00:25:30.486Z,1018.63
2017-06-18T00:26:42.707Z,1018.61
2017-06-18T00:27:55.239Z,1018.6
2017-06-18T00:29:07.161Z,1018.62
2017-06-18T00:30:19.728Z,1018.56
2017-06-18T00:31:31.941Z,1018.57
2017-06-18T00:32:44.474Z,1018.61
2017-06-18T00:33:56.707Z,1018.58
2017-06-18T00:35:08.939Z,1018.57
2017-06-18T00:36:21.460Z,1018.58
2017-06-18T00:37:34.299Z,1018.59
2017-06-18T00:38:46.524Z,1018.55
2017-06-18T00:39:59.045Z,1018.6
2017-06-18T00:41:11.274Z,1018.62
2017-06-18T00:42:23.787Z,1018.59
2017-06-18T00:43:36.340Z,1018.63
2017-06-18T00:44:48.580Z,1018.64
2017-06-18T00:46:01.104Z,1018.63
2017-06-18T00:47:13.623Z,1018.6
2017-06-18T00:48:26.137Z,1018.59
2017-06-18T00:49:38.380Z,1018.57
2017-06-18T00:50:50.889Z,1018.57
2017-06-18T00:52:03.425Z,1018.55
2017-06-18T00:53:15.675Z,1018.52
2017-06-18T00:54:27.625Z,1018.57
2017-06-18T00:55:39.892Z,1018.56
2017-06-18T00:56:52.131Z,1018.55
2017-06-18T00:58:04.637Z,1018.57
2017-06-18T00:59:16.881Z,1018.6
2017-06-18T01:00:29.425Z,1018.59
2017-06-18T01:01:41.971Z,1018.59
2017-06-18T01:02:54.196Z,1018.57
2017-06-18T01:04:06.162Z,1018.57
2017-06-18T01:05:18.383Z,1018.6
2017-06-18T01:06:30.606Z,1018.6
2017-06-18T01:07:43.171Z,1018.61
2017-06-18T01:08:55.428Z,1018.57
2017-06-18T01:10:07.951Z,1018.6
2017-06-18T01:11:20.510Z,1018.57
2017-06-18T01:12:33.064Z,1018.6
2017-06-18T01:13:45.633Z,1018.63
2017-06-18T01:14:57.851Z,1018.59
2017-06-18T01:16:10.093Z,1018.64
2017-06-18T01:17:22.639Z,1018.63
2017-06-18T01:18:34.866Z,1018.67
2017-06-18T01:19:47.378Z,1018.66
2017-06-18T01:20:59.874Z,1018.65
2017-06-18T01:22:12.093Z,1018.66
2017-06-18T01:23:24.025Z,1018.65
2017-06-18T01:24:36.279Z,1018.67
2017-06-18T01:25:48.790Z,1018.64
2017-06-18T01:27:01.289Z,1018.68
2017-06-18T01:28:13.536Z,1018.66
2017-06-18T01:29:26.077Z,1018.71
2017-06-18T01:30:38.276Z,1018.72
2017-06-18T01:31:50.811Z,1018.72
2017-06-18T01:33:03.018Z,1018.69
2017-06-18T01:34:15.539Z,1018.75
2017-06-18T01:35:27.807Z,1018.71
2017-06-18T01:36:40.329Z,1018.71
2017-06-18T01:37:52.869Z,1018.75
2017-06-18T01:39:05.136Z,1018.75
2017-06-18T01:40:17.666Z,1018.77
2017-06-18T01:41:30.188Z,1018.78
2017-06-18T01:42:42.413Z,1018.8
2017-06-18T01:43:54.932Z,1018.83
2017-06-18T01:45:07.502Z,1018.84
2017-06-18T01:46:19.741Z,1018.82
2017-06-18T01:47:31.967Z,1018.83
2017-06-18T01:48:44.512Z,1018.8
2017-06-18T01:49:57.053Z,1018.82
2017-06-18T01:51:09.254Z,1018.83
2017-06-18T01:52:21.179Z,1018.79
2017-06-18T01:53:33.697Z,1018.79
2017-06-18T01:54:46.270Z,1018.76
2017-06-18T01:55:58.817Z,1018.79
2017-06-18T01:57:11.363Z,1018.81
2017-06-18T01:58:23.907Z,1018.82
2017-06-18T01:59:36.150Z,1018.84
2017-06-18T02:00:48.374Z,1018.85
2017-06-18T02:02:00.622Z,1018.81
2017-06-18T02:03:12.847Z,1018.82
2017-06-18T02:04:25.659Z,1018.87
2017-06-18T02:05:37.880Z,1018.87
2017-06-18T02:06:50.426Z,1018.83
2017-06-18T02:08:02.946Z,1018.85
2017-06-18T02:09:15.145Z,1018.87
2017-06-18T02:10:27.114Z,1018.86
2017-06-18T02:11:39.635Z,1018.85
2017-06-18T02:12:52.149Z,1018.88
2017-06-18T02:14:04.652Z,1018.89
2017-06-18T02:15:16.872Z,1018.93
2017-06-18T02:16:29.093Z,1018.87
2017-06-18T02:17:41.610Z,1018.92
2017-06-18T02:18:54.165Z,1018.89
2017-06-18T02:20:06.409Z,1018.93
2017-06-18T02:21:18.629Z,1018.91
2017-06-18T02:22:31.178Z,1018.91
2017-06-18T02:23:43.723Z,1018.89
2017-06-18T02:24:55.968Z,1018.91
2017-06-18T02:26:08.539Z,1018.92
2017-06-18T02:27:21.056Z,1018.88
2017-06-18T02:28:33.581Z,1018.88
2017-06-18T02:29:46.102Z,1018.88
2017-06-18T02:30:58.019Z,1018.91
2017-06-18T02:32:10.544Z,1018.91
2017-06-18T02:33:23.040Z,1018.92
2017-06-18T02:34:35.586Z,1018.94
2017-06-18T02:35:47.831Z,1018.88
2017-06-18T02:37:00.374Z,1018.91
2017-06-18T02:38:12.872Z,1018.92
2017-06-18T02:39:24.840Z,1018.89
2017-06-18T02:40:37.079Z,1018.94
2017-06-18T02:41:49.599Z,1018.93
2017-06-18T02:43:02.153Z,1018.96
2017-06-18T02:44:14.680Z,1018.94
2017-06-18T02:45:27.216Z,1018.92
2017-06-18T02:46:39.716Z,1018.98
2017-06-18T02:47:51.941Z,1018.97
2017-06-18T02:49:04.489Z,1018.98
2017-06-18T02:50:17.050Z,1019.02
2017-06-18T02:51:29.279Z,1019.03
2017-06-18T02:52:41.520Z,1019.03
2017-06-18T02:53:54.034Z,1018.99
2017-06-18T02:55:05.966Z,1019.05
2017-06-18T02:56:18.512Z,1019
2017-06-18T02:57:31.054Z,1018.97
2017-06-18T02:58:43.578Z,1019.01
2017-06-18T02:59:56.099Z,1018.96
2017-06-18T03:01:08.625Z,1018.96
2017-06-18T03:02:21.138Z,1018.97
2017-06-18T03:03:33.700Z,1019.05
2017-06-18T03:04:46.234Z,1019.04
2017-06-18T03:05:58.479Z,1018.99
2017-06-18T03:07:11.021Z,1019.02
2017-06-18T03:08:23.563Z,1018.97
2017-06-18T03:09:36.413Z,1018.96
2017-06-18T03:10:48.935Z,1018.94
2017-06-18T03:12:00.880Z,1018.9
2017-06-18T03:13:13.392Z,1018.95
2017-06-18T03:14:25.618Z,1018.91
2017-06-18T03:15:38.167Z,1018.9
2017-06-18T03:16:50.688Z,1018.92
2017-06-18T03:18:02.588Z,1018.91
2017-06-18T03:19:14.833Z,1018.95
2017-06-18T03:20:27.061Z,1018.95
2017-06-18T03:21:39.601Z,1018.97
2017-06-18T03:22:51.848Z,1018.98
2017-06-18T03:24:04.381Z,1018.97
2017-06-18T03:25:16.910Z,1019.01
2017-06-18T03:26:29.431Z,1018.97
2017-06-18T03:27:41.959Z,1019.01
2017-06-18T03:28:54.472Z,1018.97
2017-06-18T03:30:06.701Z,1018.99
2017-06-18T03:31:18.943Z,1018.93
2017-06-18T03:32:31.477Z,1018.94
2017-06-18T03:33:44.012Z,1018.94
2017-06-18T03:34:56.531Z,1018.94
2017-06-18T03:36:09.077Z,1018.94
2017-06-18T03:37:21.322Z,1018.93
2017-06-18T03:38:33.268Z,1018.96
2017-06-18T03:39:45.765Z,1018.98
2017-06-18T03:40:57.985Z,1018.97
2017-06-18T03:42:10.483Z,1018.91
2017-06-18T03:43:22.699Z,1018.97
2017-06-18T03:44:34.923Z,1018.95
2017-06-18T03:45:47.440Z,1018.92
2017-06-18T03:46:59.962Z,1018.94
2017-06-18T03:48:12.460Z,1018.91
2017-06-18T03:49:25.007Z,1018.96
2017-06-18T03:50:37.270Z,1018.95
2017-06-18T03:51:49.820Z,1018.95
2017-06-18T03:53:02.044Z,1018.96
2017-06-18T03:54:14.266Z,1018.95
2017-06-18T03:55:26.811Z,1018.96
2017-06-18T03:56:39.079Z,1018.94
2017-06-18T03:57:51.578Z,1018.95
2017-06-18T03:59:03.821Z,1018.92
2017-06-18T04:00:16.360Z,1018.97
2017-06-18T04:01:28.616Z,1018.98
2017-06-18T04:02:40.833Z,1019.02
2017-06-18T04:03:53.334Z,1018.99
2017-06-18T04:05:05.554Z,1018.96
2017-06-18T04:06:18.127Z,1018.94
2017-06-18T04:07:30.660Z,1018.98
2017-06-18T04:08:43.213Z,1019
2017-06-18T04:09:55.710Z,1019
2017-06-18T04:11:07.954Z,1019
2017-06-18T04:12:19.876Z,1019.04
2017-06-18T04:13:32.105Z,1019.04
2017-06-18T04:14:44.645Z,1019.02
2017-06-18T04:15:57.168Z,1019.12
2017-06-18T04:17:09.388Z,1019.08
2017-06-18T04:18:21.933Z,1019.1
2017-06-18T04:19:34.176Z,1019.1
2017-06-18T04:20:46.371Z,1019.14
2017-06-18T04:21:58.621Z,1019.16
2017-06-18T04:23:11.144Z,1019.19
2017-06-18T04:24:23.660Z,1019.23
2017-06-18T04:25:35.856Z,1019.25
2017-06-18T04:26:48.397Z,1019.25
2017-06-18T04:28:00.926Z,1019.23
2017-06-18T04:29:13.472Z,1019.23
2017-06-18T04:30:26.017Z,1019.22
2017-06-18T04:31:38.264Z,1019.21
2017-06-18T04:32:50.787Z,1019.22
2017-06-18T04:34:03.307Z,1019.26
2017-06-18T04:35:15.856Z,1019.27
2017-06-18T04:36:28.387Z,1019.27
2017-06-18T04:37:40.918Z,1019.25
2017-06-18T04:38:53.163Z,1019.26
2017-06-18T04:40:05.709Z,1019.24
2017-06-18T04:41:18.231Z,1019.27
2017-06-18T04:42:30.448Z,1019.25
2017-06-18T04:43:42.986Z,1019.3
2017-06-18T04:44:55.191Z,1019.29
2017-06-18T04:46:07.690Z,1019.3
2017-06-18T04:47:19.927Z,1019.31
2017-06-18T04:48:31.853Z,1019.3
2017-06-18T04:49:44.049Z,1019.34
2017-06-18T04:50:56.546Z,1019.31
2017-06-18T04:52:08.771Z,1019.32
2017-06-18T04:53:21.314Z,1019.33
2017-06-18T04:54:33.858Z,1019.34
2017-06-18T04:55:45.800Z,1019.38
2017-06-18T04:56:58.068Z,1019.36
2017-06-18T04:58:10.275Z,1019.36
2017-06-18T04:59:22.483Z,1019.36
2017-06-18T05:00:34.712Z,1019.37
2017-06-18T05:01:46.911Z,1019.39
2017-06-18T05:02:59.450Z,1019.4
2017-06-18T05:04:11.652Z,1019.42
2017-06-18T05:05:23.877Z,1019.42
2017-06-18T05:06:36.425Z,1019.42
2017-06-18T05:07:48.941Z,1019.42
2017-06-18T05:09:01.463Z,1019.49
2017-06-18T05:10:13.996Z,1019.47
2017-06-18T05:11:26.221Z,1019.41
2017-06-18T05:12:38.751Z,1019.51
2017-06-18T05:13:50.998Z,1019.46
2017-06-18T05:15:03.517Z,1019.46
2017-06-18T05:16:15.734Z,1019.47
2017-06-18T05:17:28.256Z,1019.47
2017-06-18T05:18:40.808Z,1019.47
2017-06-18T05:19:53.301Z,1019.51
2017-06-18T05:21:05.536Z,1019.49
2017-06-18T05:22:18.039Z,1019.51
2017-06-18T05:23:30.537Z,1019.48
2017-06-18T05:24:43.056Z,1019.53
2017-06-18T05:25:55.261Z,1019.56
2017-06-18T05:27:07.781Z,1019.55
2017-06-18T05:28:20.015Z,1019.63
2017-06-18T05:29:32.569Z,1019.58
2017-06-18T05:30:45.113Z,1019.52
2017-06-18T05:31:57.635Z,1019.53
2017-06-18T05:33:10.156Z,1019.52
2017-06-18T05:34:22.676Z,1019.53
2017-06-18T05:35:35.223Z,1019.53
2017-06-18T05:36:47.772Z,1019.58
2017-06-18T05:38:00.006Z,1019.62
2017-06-18T05:39:12.256Z,1019.59
2017-06-18T05:40:24.498Z,1019.61
2017-06-18T05:41:37.032Z,1019.59
2017-06-18T05:42:49.540Z,1019.6
2017-06-18T05:44:02.067Z,1019.61
2017-06-18T05:45:14.322Z,1019.65
2017-06-18T05:46:26.860Z,1019.63
2017-06-18T05:47:39.406Z,1019.62
2017-06-18T05:48:51.941Z,1019.61
2017-06-18T05:50:04.488Z,1019.59
2017-06-18T05:51:16.719Z,1019.62
2017-06-18T05:52:28.640Z,1019.62
2017-06-18T05:53:41.163Z,1019.64
2017-06-18T05:54:53.706Z,1019.62
2017-06-18T05:56:06.225Z,1019.63
2017-06-18T05:57:18.751Z,1019.62
2017-06-18T05:58:30.987Z,1019.62
2017-06-18T05:59:43.215Z,1019.66
2017-06-18T06:00:55.463Z,1019.65
2017-06-18T06:02:08.022Z,1019.66
2017-06-18T06:03:20.829Z,1019.72
2017-06-18T06:04:33.075Z,1019.7
2017-06-18T06:05:45.593Z,1019.66
2017-06-18T06:06:57.787Z,1019.63
2017-06-18T06:08:10.037Z,1019.71
2017-06-18T06:09:22.272Z,1019.69
2017-06-18T06:10:34.479Z,1019.65
2017-06-18T06:11:47.017Z,1019.62
2017-06-18T06:12:58.917Z,1019.62
2017-06-18T06:14:11.442Z,1019.63
2017-06-18T06:15:23.968Z,1019.62
2017-06-18T06:16:36.489Z,1019.59
2017-06-18T06:17:49.029Z,1019.66
2017-06-18T06:19:01.275Z,1019.72
2017-06-18T06:20:13.217Z,1020.07
2017-06-18T06:21:25.759Z,1020.2
2017-06-18T06:22:38.303Z,1020.3
2017-06-18T06:23:50.183Z,1020.35
2017-06-18T06:25:03.035Z,1020.29
2017-06-18T06:26:15.597Z,1020.27
2017-06-18T06:27:28.139Z,1020.15
2017-06-18T06:28:40.664Z,1020.07
2017-06-18T06:29:53.181Z,1019.94
2017-06-18T06:31:05.407Z,1020.12
2017-06-18T06:32:17.606Z,1020.29
2017-06-18T06:33:30.123Z,1020.48
2017-06-18T06:34:42.661Z,1020.35
2017-06-18T06:35:55.174Z,1020.22
2017-06-18T06:37:07.731Z,1020.56
2017-06-18T06:38:19.986Z,1020.71
2017-06-18T06:39:32.530Z,1020.67
2017-06-18T06:40:44.781Z,1020.69
2017-06-18T06:41:57.011Z,1020.69
2017-06-18T06:43:09.546Z,1020.65
2017-06-18T06:44:21.491Z,1020.62
2017-06-18T06:45:33.752Z,1020.61
2017-06-18T06:46:46.324Z,1020.55
2017-06-18T06:47:58.595Z,1020.6
2017-06-18T06:49:09.964Z,1020.6
2017-06-18T06:50:22.495Z,1020.52
2017-06-18T06:51:34.733Z,1020.47
2017-06-18T06:52:47.285Z,1020.47
2017-06-18T06:53:59.849Z,1020.45
2017-06-18T06:55:12.098Z,1020.46
2017-06-18T06:56:24.037Z,1020.49
2017-06-18T06:57:36.547Z,1020.5
2017-06-18T06:58:48.794Z,1020.54
2017-06-18T07:00:00.733Z,1020.53
2017-06-18T07:01:13.000Z,1020.46
2017-06-18T07:02:25.267Z,1020.46
2017-06-18T07:03:37.226Z,1020.54
2017-06-18T07:04:49.770Z,1020.54
2017-06-18T07:06:02.318Z,1020.53
2017-06-18T07:07:14.562Z,1020.52
2017-06-18T07:08:27.409Z,1020.45
2017-06-18T07:09:39.660Z,1020.47
2017-06-18T07:10:51.925Z,1020.51
2017-06-18T07:12:03.860Z,1020.53
2017-06-18T07:13:16.387Z,1020.47
2017-06-18T07:14:28.651Z,1020.29
2017-06-18T07:15:40.906Z,1020.24
2017-06-18T07:16:52.825Z,1020.19
2017-06-18T07:18:05.371Z,1020.1
2017-06-18T07:19:17.318Z,1020.09
2017-06-18T07:20:29.281Z,1020.07
2017-06-18T07:21:41.511Z,1020.09
2017-06-18T07:22:53.758Z,1020.18
2017-06-18T07:24:06.297Z,1020.19
2017-06-18T07:25:18.843Z,1020.26
2017-06-18T07:26:31.399Z,1020.19
2017-06-18T07:27:43.034Z,1020.1
2017-06-18T07:28:55.281Z,1020.08
2017-06-18T07:30:07.539Z,1020.03
2017-06-18T07:31:19.505Z,1019.89
2017-06-18T07:32:31.740Z,1019.93
2017-06-18T07:33:44.298Z,1020.08
2017-06-18T07:34:56.861Z,1020.13
2017-06-18T07:36:09.439Z,1020.18
2017-06-18T07:37:21.985Z,1020.03
2017-06-18T07:38:34.555Z,1020.06
2017-06-18T07:39:47.090Z,1020.13
2017-06-18T07:40:59.922Z,1020.14
2017-06-18T07:42:12.161Z,1020.15
2017-06-18T07:43:24.712Z,1020.12
2017-06-18T07:44:37.263Z,1020.08
2017-06-18T07:45:49.820Z,1020.06
2017-06-18T07:47:02.373Z,1020.18
2017-06-18T07:48:14.887Z,1020.07
2017-06-18T07:49:27.440Z,1020.02
2017-06-18T07:50:39.662Z,1020.05
2017-06-18T07:51:51.903Z,1020.06
2017-06-18T07:53:04.153Z,1020.12
2017-06-18T07:54:16.698Z,1020.19
2017-06-18T07:55:28.912Z,1020.13
2017-06-18T07:56:40.858Z,1019.96
2017-06-18T07:57:53.408Z,1020.14
2017-06-18T07:59:05.965Z,1020.07
2017-06-18T08:00:18.497Z,1020.15
2017-06-18T08:01:31.056Z,1020.17
2017-06-18T08:02:43.313Z,1020.34
2017-06-18T08:03:55.542Z,1020.29
2017-06-18T08:05:07.183Z,1020.26
2017-06-18T08:06:19.750Z,1020.13
2017-06-18T08:07:32.272Z,1020.08
2017-06-18T08:08:44.818Z,1020.08
2017-06-18T08:09:57.063Z,1020.15
2017-06-18T08:11:09.622Z,1020.17
2017-06-18T08:12:22.194Z,1020.14
2017-06-18T08:13:34.484Z,1020.3
2017-06-18T08:14:46.752Z,1020.3
2017-06-18T08:15:58.977Z,1020.4
2017-06-18T08:17:11.198Z,1020.31
2017-06-18T08:18:23.738Z,1020.27
2017-06-18T08:19:36.268Z,1020.12
2017-06-18T08:20:48.809Z,1020.12
2017-06-18T08:22:01.335Z,1020.16
2017-06-18T08:23:13.877Z,1020.28
2017-06-18T08:24:26.425Z,1020.15
2017-06-18T08:25:38.986Z,1020.01
2017-06-18T08:26:51.530Z,1020.02
2017-06-18T08:28:04.062Z,1020.16
2017-06-18T08:29:16.310Z,1020.23
2017-06-18T08:30:28.856Z,1020.25
2017-06-18T08:31:41.401Z,1020.19
2017-06-18T08:32:53.935Z,1020.25
2017-06-18T08:34:06.460Z,1020.17
2017-06-18T08:35:18.988Z,1020.01
2017-06-18T08:36:31.557Z,1020.03
2017-06-18T08:37:44.127Z,1019.95
2017-06-18T08:38:56.648Z,1019.87
2017-06-18T08:40:08.922Z,1019.9
2017-06-18T08:41:20.882Z,1019.86
2017-06-18T08:42:33.428Z,1019.98
2017-06-18T08:43:46.002Z,1019.94
2017-06-18T08:44:58.257Z,1020
2017-06-18T08:46:10.500Z,1019.92
2017-06-18T08:47:23.070Z,1019.97
2017-06-18T08:48:35.033Z,1019.93
2017-06-18T08:49:47.595Z,1019.92
2017-06-18T08:51:00.164Z,1019.93
2017-06-18T08:52:12.178Z,1019.92
2017-06-18T08:53:24.728Z,1019.92
2017-06-18T08:54:37.326Z,1019.93
2017-06-18T08:55:49.890Z,1019.89
2017-06-18T08:57:02.466Z,1019.91
2017-06-18T08:58:15.050Z,1019.96
2017-06-18T08:59:27.603Z,1019.99
2017-06-18T09:00:39.876Z,1019.96
2017-06-18T09:01:52.117Z,1019.94
2017-06-18T09:03:04.691Z,1019.98
2017-06-18T09:04:17.257Z,1019.95
2017-06-18T09:05:29.492Z,1019.92
2017-06-18T09:06:42.070Z,1019.91
2017-06-18T09:07:54.329Z,1019.83
2017-06-18T09:09:06.598Z,1019.82
2017-06-18T09:10:18.852Z,1019.85
2017-06-18T09:11:31.433Z,1019.85
2017-06-18T09:12:44.005Z,1019.9
2017-06-18T09:13:56.580Z,1019.91
2017-06-18T09:15:08.509Z,1019.93
2017-06-18T09:16:20.772Z,1019.89
2017-06-18T09:17:33.320Z,1019.85
2017-06-18T09:18:46.182Z,1019.86
2017-06-18T09:19:57.833Z,1019.89
2017-06-18T09:21:10.108Z,1019.87
2017-06-18T09:22:22.680Z,1019.82
2017-06-18T09:23:34.943Z,1019.87
2017-06-18T09:24:47.213Z,1019.89
2017-06-18T09:25:59.788Z,1019.78
2017-06-18T09:27:12.388Z,1019.74
2017-06-18T09:28:24.658Z,1019.75
2017-06-18T09:29:37.205Z,1019.77
2017-06-18T09:30:49.452Z,1019.68
2017-06-18T09:32:01.417Z,1019.75
2017-06-18T09:33:13.368Z,1019.74
2017-06-18T09:34:25.939Z,1019.73
2017-06-18T09:35:38.209Z,1019.73
2017-06-18T09:36:50.506Z,1019.71
2017-06-18T09:38:02.493Z,1019.72
2017-06-18T09:39:14.747Z,1019.67
2017-06-18T09:40:27.318Z,1019.67
2017-06-18T09:41:39.609Z,1019.7
2017-06-18T09:42:51.256Z,1019.78
2017-06-18T09:44:03.802Z,1019.76
2017-06-18T09:45:16.052Z,1019.77
2017-06-18T09:46:28.603Z,1019.73
2017-06-18T09:47:41.165Z,1019.72
2017-06-18T09:48:53.431Z,1019.72
2017-06-18T09:50:06.007Z,1019.7
2017-06-18T09:51:18.253Z,1019.7
2017-06-18T09:52:30.527Z,1019.71
2017-06-18T09:53:42.795Z,1019.71
2017-06-18T09:54:55.340Z,1019.7
2017-06-18T09:56:07.293Z,1019.66
2017-06-18T09:57:19.558Z,1019.71
2017-06-18T09:58:32.109Z,1019.71
2017-06-18T09:59:44.375Z,1019.67
2017-06-18T10:00:56.945Z,1019.73
2017-06-18T10:02:09.516Z,1019.68
2017-06-18T10:03:22.091Z,1019.64
2017-06-18T10:04:34.308Z,1019.61
2017-06-18T10:05:46.558Z,1019.63
2017-06-18T10:06:59.128Z,1019.61
2017-06-18T10:08:11.716Z,1019.66
2017-06-18T10:09:23.995Z,1019.59
2017-06-18T10:10:36.536Z,1019.59
2017-06-18T10:11:48.486Z,1019.6
2017-06-18T10:13:01.029Z,1019.58
2017-06-18T10:14:13.278Z,1019.58
2017-06-18T10:15:25.891Z,1019.54
2017-06-18T10:16:38.168Z,1019.54
2017-06-18T10:17:50.766Z,1019.53
2017-06-18T10:19:03.388Z,1019.54
2017-06-18T10:20:15.054Z,1019.59
2017-06-18T10:21:27.297Z,1019.56
2017-06-18T10:22:39.546Z,1019.59
2017-06-18T10:23:52.144Z,1019.57
2017-06-18T10:25:04.716Z,1019.53
2017-06-18T10:26:16.987Z,1019.51
2017-06-18T10:27:29.557Z,1019.49
2017-06-18T10:28:41.801Z,1019.48
2017-06-18T10:29:53.747Z,1019.5
2017-06-18T10:31:06.024Z,1019.49
2017-06-18T10:32:17.992Z,1019.48
2017-06-18T10:33:30.240Z,1019.51
2017-06-18T10:34:42.809Z,1019.49
2017-06-18T10:35:54.481Z,1019.47
2017-06-18T10:37:07.082Z,1019.5
2017-06-18T10:38:19.655Z,1019.46
2017-06-18T10:39:32.216Z,1019.47
2017-06-18T10:40:44.795Z,1019.54
2017-06-18T10:41:57.349Z,1019.51
2017-06-18T10:43:09.577Z,1019.49
2017-06-18T10:44:21.851Z,1019.46
2017-06-18T10:45:34.437Z,1019.51
2017-06-18T10:46:46.994Z,1019.53
2017-06-18T10:47:59.236Z,1019.45
2017-06-18T10:49:11.486Z,1019.51
2017-06-18T10:50:23.759Z,1019.49
2017-06-18T10:51:36.324Z,1019.53
2017-06-18T10:52:48.594Z,1019.54
2017-06-18T10:54:01.165Z,1019.51
2017-06-18T10:55:13.116Z,1019.54
2017-06-18T10:56:25.682Z,1019.53
2017-06-18T10:57:37.928Z,1019.51
2017-06-18T10:58:50.203Z,1019.54
2017-06-18T11:00:02.791Z,1019.47
2017-06-18T11:01:14.793Z,1019.48
2017-06-18T11:02:27.361Z,1019.49
2017-06-18T11:03:39.590Z,1019.4
2017-06-18T11:04:52.129Z,1019.45
2017-06-18T11:06:04.392Z,1019.41
2017-06-18T11:07:16.621Z,1019.4
2017-06-18T11:08:29.167Z,1019.41
2017-06-18T11:09:41.744Z,1019.38
2017-06-18T11:10:54.308Z,1019.35
2017-06-18T11:12:06.583Z,1019.37
2017-06-18T11:13:19.168Z,1019.34
2017-06-18T11:14:31.142Z,1019.37
2017-06-18T11:15:43.392Z,1019.31
2017-06-18T11:16:55.942Z,1019.34
2017-06-18T11:18:08.501Z,1019.31
2017-06-18T11:19:20.761Z,1019.31
2017-06-18T11:20:33.305Z,1019.35
2017-06-18T11:21:45.875Z,1019.29
2017-06-18T11:22:58.442Z,1019.32
2017-06-18T11:24:10.109Z,1019.28
2017-06-18T11:25:22.401Z,1019.28
2017-06-18T11:26:34.988Z,1019.28
2017-06-18T11:27:47.226Z,1019.24
2017-06-18T11:28:59.496Z,1019.2
2017-06-18T11:30:11.747Z,1019.23
2017-06-18T11:31:24.014Z,1019.22
2017-06-18T11:32:36.559Z,1019.2
2017-06-18T11:33:48.835Z,1019.14
2017-06-18T11:35:01.376Z,1019.25
2017-06-18T11:36:13.601Z,1019.24
2017-06-18T11:37:25.572Z,1019.22
2017-06-18T11:38:38.169Z,1019.16
2017-06-18T11:39:50.135Z,1019.2
2017-06-18T11:41:02.365Z,1019.19
2017-06-18T11:42:14.952Z,1019.14
2017-06-18T11:43:27.501Z,1019.21
2017-06-18T11:44:40.047Z,1019.19
2017-06-18T11:45:52.590Z,1019.18
2017-06-18T11:47:05.128Z,1019.17
2017-06-18T11:48:17.106Z,1019.14
2017-06-18T11:49:29.659Z,1019.11
2017-06-18T11:50:41.923Z,1019.06
2017-06-18T11:51:54.495Z,1019.08
2017-06-18T11:53:07.055Z,1019.03
2017-06-18T11:54:19.611Z,1019.01
2017-06-18T11:55:31.857Z,1019.07
2017-06-18T11:56:44.432Z,1019.1
2017-06-18T11:57:56.977Z,1019.13
2017-06-18T11:59:09.245Z,1019.11
2017-06-18T12:00:21.519Z,1019.13
2017-06-18T12:01:34.090Z,1019.1
2017-06-18T12:02:46.057Z,1019.06
2017-06-18T12:03:58.609Z,1019.06
2017-06-18T12:05:10.880Z,1019.04
2017-06-18T12:06:23.474Z,1019.04
2017-06-18T12:07:35.745Z,1019.05
2017-06-18T12:08:48.291Z,1019.02
2017-06-18T12:10:00.854Z,1019
2017-06-18T12:11:13.407Z,1018.97
2017-06-18T12:12:25.675Z,1019.02
2017-06-18T12:13:37.949Z,1018.92
2017-06-18T12:14:50.217Z,1018.93
2017-06-18T12:16:02.788Z,1018.96
2017-06-18T12:17:15.338Z,1018.97
2017-06-18T12:18:27.612Z,1018.97
2017-06-18T12:19:40.175Z,1018.93
2017-06-18T12:20:52.451Z,1018.9
2017-06-18T12:22:04.396Z,1018.96
2017-06-18T12:23:16.689Z,1018.97
2017-06-18T12:24:29.234Z,1018.95
2017-06-18T12:25:41.481Z,1018.95
2017-06-18T12:26:54.046Z,1018.93
2017-06-18T12:28:05.972Z,1018.95
2017-06-18T12:29:18.552Z,1018.98
2017-06-18T12:30:30.792Z,1019.01
2017-06-18T12:31:43.376Z,1018.94
2017-06-18T12:32:55.606Z,1018.88
2017-06-18T12:34:08.197Z,1018.85
2017-06-18T12:35:20.774Z,1018.85
2017-06-18T12:36:33.321Z,1018.91
2017-06-18T12:37:45.582Z,1018.89
2017-06-18T12:38:57.819Z,1018.86
2017-06-18T12:40:10.055Z,1018.96
2017-06-18T12:41:22.307Z,1018.96
2017-06-18T12:42:34.539Z,1018.93
2017-06-18T12:43:47.144Z,1018.92
2017-06-18T12:44:59.407Z,1018.93
2017-06-18T12:46:11.661Z,1018.85
2017-06-18T12:47:24.212Z,1018.87
2017-06-18T12:48:36.495Z,1018.85
2017-06-18T12:49:48.750Z,1018.85
2017-06-18T12:51:01.312Z,1018.77
2017-06-18T12:52:13.868Z,1018.8
2017-06-18T12:53:26.136Z,1018.85
2017-06-18T12:54:38.708Z,1018.88
2017-06-18T12:55:50.974Z,1018.87
2017-06-18T12:57:03.548Z,1018.86
2017-06-18T12:58:15.219Z,1018.88
2017-06-18T12:59:27.187Z,1018.87
2017-06-18T13:00:39.417Z,1018.87
2017-06-18T13:01:51.961Z,1018.9
2017-06-18T13:03:04.203Z,1018.87
2017-06-18T13:04:16.150Z,1018.81
2017-06-18T13:05:28.695Z,1018.83
2017-06-18T13:06:40.967Z,1018.85
2017-06-18T13:07:53.542Z,1018.79
2017-06-18T13:09:06.113Z,1018.8
2017-06-18T13:10:18.385Z,1018.8
2017-06-18T13:11:30.953Z,1018.81
2017-06-18T13:12:42.925Z,1018.84
2017-06-18T13:13:55.535Z,1018.85
2017-06-18T13:15:07.767Z,1018.86
2017-06-18T13:16:19.737Z,1018.85
2017-06-18T13:17:31.709Z,1018.79
2017-06-18T13:18:43.693Z,1018.79
2017-06-18T13:19:55.649Z,1018.82
2017-06-18T13:21:07.318Z,1018.84
2017-06-18T13:22:19.281Z,1018.81
2017-06-18T13:23:31.234Z,1018.86
2017-06-18T13:24:43.807Z,1018.78
2017-06-18T13:25:55.777Z,1018.76
2017-06-18T13:27:07.401Z,1018.71
2017-06-18T13:28:19.671Z,1018.76
2017-06-18T13:29:32.238Z,1018.75
2017-06-18T13:30:43.911Z,1018.74
2017-06-18T13:31:55.883Z,1018.77
2017-06-18T13:33:08.104Z,1018.74
2017-06-18T13:34:19.751Z,1018.7
2017-06-18T13:35:32.314Z,1018.68
2017-06-18T13:36:44.545Z,1018.68
2017-06-18T13:37:56.815Z,1018.73
2017-06-18T13:39:08.786Z,1018.72
2017-06-18T13:40:20.757Z,1018.75
2017-06-18T13:41:32.998Z,1018.73
2017-06-18T13:42:45.544Z,1018.71
2017-06-18T13:43:57.793Z,1018.66
2017-06-18T13:45:09.491Z,1018.68
2017-06-18T13:46:22.082Z,1018.71
2017-06-18T13:47:34.655Z,1018.67
2017-06-18T13:48:46.899Z,1018.62
2017-06-18T13:49:59.494Z,1018.63
2017-06-18T13:51:11.440Z,1018.58
2017-06-18T13:52:23.394Z,1018.6
2017-06-18T13:53:35.349Z,1018.58
2017-06-18T13:54:47.578Z,1018.58
2017-06-18T13:55:59.526Z,1018.57
2017-06-18T13:57:11.174Z,1018.55
2017-06-18T13:58:23.169Z,1018.55
2017-06-18T13:59:35.407Z,1018.56
2017-06-18T14:00:47.663Z,1018.55
2017-06-18T14:01:59.933Z,1018.48
2017-06-18T14:03:11.602Z,1018.5
2017-06-18T14:04:23.871Z,1018.51
2017-06-18T14:05:36.417Z,1018.49
2017-06-18T14:06:48.385Z,1018.53
2017-06-18T14:08:00.962Z,1018.51
2017-06-18T14:09:13.532Z,1018.49
2017-06-18T14:10:24.900Z,1018.45
2017-06-18T14:11:36.574Z,1018.46
2017-06-18T14:12:48.522Z,1018.45
2017-06-18T14:14:00.791Z,1018.46
2017-06-18T14:15:12.154Z,1018.44
2017-06-18T14:16:24.373Z,1018.47
2017-06-18T14:17:36.954Z,1018.42
2017-06-18T14:18:49.201Z,1018.44
2017-06-18T14:20:01.468Z,1018.39
2017-06-18T14:21:13.689Z,1018.41
2017-06-18T14:22:26.254Z,1018.37
2017-06-18T14:23:37.880Z,1018.4
2017-06-18T14:24:49.826Z,1018.41
2017-06-18T14:26:02.394Z,1018.42
2017-06-18T14:27:14.315Z,1018.43
2017-06-18T14:28:26.564Z,1018.45
2017-06-18T14:29:39.160Z,1018.41
2017-06-18T14:30:51.152Z,1018.41
2017-06-18T14:32:03.731Z,1018.43
2017-06-18T14:33:16.323Z,1018.41
2017-06-18T14:34:28.590Z,1018.44
2017-06-18T14:35:41.140Z,1018.43
2017-06-18T14:36:53.390Z,1018.42
2017-06-18T14:38:05.628Z,1018.37